Terminal Aerodrome Forecast
Issued by NWS

Home | Current Version | Previous Version | Text Only | Print | Product List | Glossary On
Versions: 1 2 3 4 5 6 7 8 9 10 11 12
000
FTUS44 KEPZ 250548
TAFLRU
TAF
KLRU 250548Z 2506/2606 26011KT P6SM BKN250
     FM251300 25020G32KT P6SM FEW150 SCT250
     FM251800 25034G44KT P6SM BKN250=

USA.gov is the U.S. government's official web portal to all federal, state and local government web resources and services.